Time;durP1;ratioP1;P1;durP2;ratioP2;P2;SDS_P1;SDS_P2;PMS_P1;PMS_P2;Temp;Humidity;BMP_temperature;BMP_pressure;BME280_temperature;BME280_humidity;BME280_pressure;Samples;Min_cycle;Max_cycle;Signal;HPM_P1;HPM_P2
2023/12/22 00:02:18;;;;;;;1.77;0.60;;;;;;;18.95;50.96;100144.91;5055790;27;97224;-77
2023/12/22 00:04:45;;;;;;;1.50;0.60;;;;;;;18.96;50.91;100150.16;5061070;27;96861;-78
2023/12/22 00:07:11;;;;;;;1.92;0.60;;;;;;;18.96;51.18;100166.50;5033580;27;96946;-77
2023/12/22 00:09:38;;;;;;;2.80;0.90;;;;;;;18.96;50.81;100166.50;5049917;27;96726;-77
2023/12/22 00:12:05;;;;;;;1.00;0.70;;;;;;;18.96;51.13;100181.97;5047255;27;97958;-77
2023/12/22 00:14:32;;;;;;;2.45;0.70;;;;;;;18.96;50.96;100173.81;5047429;27;96740;-77
2023/12/22 00:16:58;;;;;;;0.80;0.50;;;;;;;18.96;50.69;100168.38;5057881;27;96982;-77
2023/12/22 00:19:25;;;;;;;2.78;0.75;;;;;;;18.96;50.96;100180.09;5047606;27;97469;-78
2023/12/22 00:21:52;;;;;;;1.23;0.70;;;;;;;18.96;51.19;100184.69;5045891;27;99573;-77
2023/12/22 00:24:18;;;;;;;0.73;0.40;;;;;;;18.96;50.81;100171.94;5056546;27;97134;-77
2023/12/22 00:26:45;;;;;;;1.48;0.57;;;;;;;18.97;50.92;100180.94;5064696;27;96913;-77
2023/12/22 00:29:12;;;;;;;1.80;0.70;;;;;;;18.97;51.01;100170.91;5042566;27;97070;-77
2023/12/22 00:31:39;;;;;;;1.63;0.70;;;;;;;18.96;50.73;100162.91;5064346;27;97457;-77
2023/12/22 00:34:05;;;;;;;1.38;0.68;;;;;;;18.96;50.87;100169.22;5064997;27;97214;-77
2023/12/22 00:36:32;;;;;;;1.08;0.60;;;;;;;18.96;50.67;100182.81;5050577;27;96894;-77
2023/12/22 00:38:59;;;;;;;1.55;0.70;;;;;;;18.97;50.80;100178.22;5050568;27;96737;-77
2023/12/22 00:41:26;;;;;;;1.23;0.60;;;;;;;18.96;51.06;100179.25;5044596;27;97901;-77
2023/12/22 00:43:53;;;;;;;1.05;0.60;;;;;;;18.95;51.07;100186.56;5036610;27;96755;-78
2023/12/22 00:46:20;;;;;;;1.30;0.70;;;;;;;18.96;50.89;100209.19;5050815;27;96878;-77
2023/12/22 00:48:46;;;;;;;1.75;0.52;;;;;;;18.96;50.94;100201.00;5041237;27;97269;-77
2023/12/22 00:51:13;;;;;;;1.20;0.50;;;;;;;18.95;51.05;100207.50;5058068;27;96665;-77
2023/12/22 00:53:40;;;;;;;1.30;0.65;;;;;;;18.93;50.69;100204.94;5040245;27;97288;-77
2023/12/22 00:56:07;;;;;;;2.22;0.70;;;;;;;18.95;50.79;100204.75;5044443;27;96769;-77
2023/12/22 00:58:33;;;;;;;1.20;0.50;;;;;;;18.95;50.92;100202.88;5021812;27;96931;-77
2023/12/22 01:01:00;;;;;;;0.85;0.50;;;;;;;18.93;50.97;100209.53;5047198;27;96989;-77
2023/12/22 01:03:27;;;;;;;1.00;0.50;;;;;;;18.93;50.78;100204.09;5041083;27;96729;-77
2023/12/22 01:05:53;;;;;;;1.80;0.70;;;;;;;18.93;50.51;100195.94;5064854;27;96877;-77
2023/12/22 01:08:20;;;;;;;1.42;0.60;;;;;;;18.93;50.72;100191.34;5053392;27;96634;-77
2023/12/22 01:10:47;;;;;;;1.35;0.70;;;;;;;18.92;50.95;100186.06;5052602;27;97046;-77
2023/12/22 01:13:14;;;;;;;1.02;0.50;;;;;;;18.94;50.81;100178.59;5052386;27;96029;-78
2023/12/22 01:15:43;;;;;;;1.95;0.60;;;;;;;18.93;50.58;100183.19;5072453;27;96862;-77
2023/12/22 01:18:10;;;;;;;1.60;0.70;;;;;;;18.93;50.64;100191.34;5041614;27;96665;-77
2023/12/22 01:20:37;;;;;;;0.93;0.57;;;;;;;18.94;50.65;100197.63;5043854;27;99128;-77
2023/12/22 01:23:04;;;;;;;1.90;0.60;;;;;;;18.94;50.69;100200.34;5058823;27;97263;-78
2023/12/22 01:25:31;;;;;;;0.68;0.45;;;;;;;18.94;50.76;100206.63;5060619;27;97359;-78
2023/12/22 01:27:57;;;;;;;2.08;0.60;;;;;;;18.94;50.80;100214.81;5045914;27;100182;-77
2023/12/22 01:30:24;;;;;;;1.10;0.50;;;;;;;18.94;50.76;100203.91;5047810;27;100607;-77
2023/12/22 01:32:50;;;;;;;1.63;0.73;;;;;;;18.95;50.56;100202.03;5058516;27;96679;-77
2023/12/22 01:35:17;;;;;;;1.30;0.40;;;;;;;18.95;50.61;100216.50;5063938;27;96746;-77
2023/12/22 01:37:44;;;;;;;1.00;0.55;;;;;;;18.94;50.44;100255.63;5049412;27;99409;-77
2023/12/22 01:40:11;;;;;;;1.65;0.60;;;;;;;18.96;50.65;100260.88;5057699;27;97621;-77
2023/12/22 01:42:38;;;;;;;1.48;0.63;;;;;;;18.95;50.37;100254.59;5035736;27;97116;-77
2023/12/22 01:45:06;;;;;;;1.27;0.60;;;;;;;18.95;50.63;100229.25;5029017;27;97058;-77
2023/12/22 01:47:33;;;;;;;1.23;0.50;;;;;;;18.95;50.67;100218.38;5065724;27;97983;-77
2023/12/22 01:50:00;;;;;;;1.00;0.57;;;;;;;18.96;50.42;100231.78;5034571;27;97847;-77
2023/12/22 01:52:27;;;;;;;1.65;0.65;;;;;;;18.95;50.60;100234.69;5059760;27;96778;-77
2023/12/22 01:54:55;;;;;;;0.90;0.55;;;;;;;18.95;50.63;100224.66;5049973;27;97012;-77
2023/12/22 01:57:22;;;;;;;1.48;0.55;;;;;;;18.96;50.44;100275.34;5032241;27;96805;-77
2023/12/22 01:59:49;;;;;;;1.42;0.52;;;;;;;18.95;50.55;100265.47;5045638;27;97585;-77
2023/12/22 02:02:16;;;;;;;1.35;0.60;;;;;;;18.94;50.60;100252.91;5041034;27;96754;-77
2023/12/22 02:04:44;;;;;;;1.70;0.70;;;;;;;18.94;50.66;100244.72;5067500;27;97081;-77
2023/12/22 02:07:12;;;;;;;1.17;0.38;;;;;;;18.94;50.55;100236.56;5061972;27;96837;-77
2023/12/22 02:09:38;;;;;;;1.02;0.50;;;;;;;18.95;50.56;100246.44;5032725;27;96834;-77
2023/12/22 02:12:05;;;;;;;1.48;0.50;;;;;;;18.94;50.50;100236.56;5045584;27;97123;-77
2023/12/22 02:14:32;;;;;;;1.02;0.57;;;;;;;18.95;50.20;100237.41;5059893;27;96796;-78
2023/12/22 02:17:11;;;;;;;1.42;0.50;;;;;;;18.93;50.18;100237.59;5049704;27;97142;-77
2023/12/22 02:19:37;;;;;;;1.45;0.52;;;;;;;18.94;50.23;100257.50;5059804;27;97818;-78
2023/12/22 02:22:08;;;;;;;1.15;0.45;;;;;;;18.95;50.60;100251.03;5070756;27;97117;-77
2023/12/22 02:24:36;;;;;;;1.10;0.50;;;;;;;18.95;50.40;100253.75;5046842;27;98360;-77
2023/12/22 02:27:33;;;;;;;1.23;0.70;;;;;;;18.94;50.57;100244.72;5058418;27;100543;-77
2023/12/22 02:30:06;;;;;;;1.42;0.60;;;;;;;18.94;50.41;100252.91;5048879;27;97545;-77
2023/12/22 02:32:36;;;;;;;1.05;0.55;;;;;;;18.93;50.44;100256.66;5049702;27;96811;-77
2023/12/22 02:35:07;;;;;;;1.42;0.60;;;;;;;18.92;50.30;100252.22;5029161;27;97702;-77
2023/12/22 02:37:35;;;;;;;2.05;0.60;;;;;;;18.93;50.33;100253.06;5045326;27;97696;-77
2023/12/22 02:40:03;;;;;;;0.65;0.32;;;;;;;18.92;50.31;100248.66;5032425;27;99720;-77
2023/12/22 02:42:30;;;;;;;0.95;0.40;;;;;;;18.92;50.17;100232.34;5047046;27;96976;-77
2023/12/22 02:44:58;;;;;;;2.58;0.73;;;;;;;18.92;50.29;100237.78;5040270;27;97253;-77
2023/12/22 02:47:27;;;;;;;1.35;0.43;;;;;;;18.92;50.38;100235.06;5051186;27;97924;-77
2023/12/22 02:49:54;;;;;;;1.05;0.50;;;;;;;18.92;50.07;100229.63;5035696;27;97409;-77
2023/12/22 02:52:21;;;;;;;1.67;0.50;;;;;;;18.91;50.54;100215.16;5028019;27;97132;-77
2023/12/22 02:54:48;;;;;;;1.50;0.70;;;;;;;18.92;50.37;100210.56;5049661;27;96916;-77
2023/12/22 02:57:14;;;;;;;1.05;0.50;;;;;;;18.91;50.27;100198.84;5064734;27;97708;-77
2023/12/22 02:59:41;;;;;;;1.05;0.38;;;;;;;18.91;50.19;100211.59;5042426;27;96816;-77
2023/12/22 03:02:07;;;;;;;1.45;0.60;;;;;;;18.92;50.56;100211.41;5026265;27;96812;-77
2023/12/22 03:04:34;;;;;;;0.90;0.50;;;;;;;18.93;50.29;100220.41;5061103;27;97113;-77
2023/12/22 03:07:01;;;;;;;0.63;0.40;;;;;;;18.93;50.49;100214.97;5059302;27;97381;-77
2023/12/22 03:09:28;;;;;;;1.15;0.60;;;;;;;18.93;50.08;100198.66;5062149;27;97456;-77
2023/12/22 03:11:56;;;;;;;2.85;0.63;;;;;;;18.92;50.32;100203.25;5041838;27;97287;-77
2023/12/22 03:14:23;;;;;;;1.35;0.32;;;;;;;18.92;50.03;100203.25;5059432;27;96846;-77
2023/12/22 03:16:49;;;;;;;1.92;0.60;;;;;;;18.92;50.36;100213.28;5051345;27;97775;-77
2023/12/22 03:19:16;;;;;;;1.05;0.50;;;;;;;18.93;50.15;100210.38;5040461;27;98728;-77
2023/12/22 03:21:43;;;;;;;1.20;0.60;;;;;;;18.92;50.29;100213.28;5065509;27;97345;-78
2023/12/22 03:24:09;;;;;;;1.20;0.47;;;;;;;18.94;50.22;100222.13;5052561;27;97148;-77
2023/12/22 03:26:36;;;;;;;1.50;0.60;;;;;;;18.93;50.24;100221.28;5038136;27;97709;-77
2023/12/22 03:29:03;;;;;;;1.35;0.52;;;;;;;18.93;50.08;100240.31;5042523;27;96810;-77
2023/12/22 03:31:29;;;;;;;0.65;0.30;;;;;;;18.94;50.00;100222.13;5041989;27;97486;-77
2023/12/22 03:33:56;;;;;;;2.55;0.60;;;;;;;18.94;49.76;100225.69;5043755;27;96967;-77
2023/12/22 03:36:23;;;;;;;1.88;0.50;;;;;;;18.94;50.18;100231.13;5046779;27;98692;-77
2023/12/22 03:38:49;;;;;;;1.08;0.38;;;;;;;18.93;50.28;100251.19;5039807;27;99468;-77
2023/12/22 03:41:16;;;;;;;2.03;0.43;;;;;;;18.93;49.84;100245.75;5047786;27;97348;-77
2023/12/22 03:43:42;;;;;;;1.60;0.40;;;;;;;18.93;50.21;100234.88;5036709;27;98260;-77
2023/12/22 03:46:09;;;;;;;1.35;0.50;;;;;;;18.94;50.21;100230.28;5065492;27;97037;-77
2023/12/22 03:48:36;;;;;;;1.20;0.52;;;;;;;18.93;50.02;100223.13;5029696;27;98250;-77
2023/12/22 03:51:02;;;;;;;1.80;0.70;;;;;;;18.93;49.84;100221.28;5048756;27;96798;-77
2023/12/22 03:53:29;;;;;;;2.40;0.40;;;;;;;18.94;50.08;100219.41;5065111;27;96952;-78
2023/12/22 03:55:56;;;;;;;0.95;0.57;;;;;;;18.94;50.08;100224.84;5050388;27;97492;-77
2023/12/22 03:58:23;;;;;;;0.82;0.40;;;;;;;18.94;50.08;100228.41;5040986;27;97829;-78
2023/12/22 04:00:49;;;;;;;1.35;0.55;;;;;;;18.94;49.84;100230.28;5063192;27;96628;-77
2023/12/22 04:03:16;;;;;;;1.42;0.55;;;;;;;18.93;49.78;100217.69;5039554;27;96747;-77
2023/12/22 04:05:43;;;;;;;1.48;0.65;;;;;;;18.93;49.86;100229.44;5049912;27;96851;-77
2023/12/22 04:08:09;;;;;;;0.90;0.55;;;;;;;18.92;49.89;100219.56;5049977;27;97609;-78
2023/12/22 04:10:36;;;;;;;1.42;0.65;;;;;;;18.92;49.81;100227.75;5023566;27;97360;-77
2023/12/22 04:13:03;;;;;;;1.30;0.43;;;;;;;18.93;49.73;100225.88;5059516;27;96870;-78
2023/12/22 04:15:29;;;;;;;1.10;0.50;;;;;;;18.91;50.06;100220.59;5050537;27;98687;-77
2023/12/22 04:17:56;;;;;;;0.98;0.50;;;;;;;18.92;50.08;100221.44;5042722;27;97781;-78
2023/12/22 04:20:23;;;;;;;1.27;0.63;;;;;;;18.92;49.76;100227.75;5051539;27;98012;-77
2023/12/22 04:22:50;;;;;;;1.95;0.50;;;;;;;18.90;50.07;100218.06;5058192;27;96850;-78
2023/12/22 04:25:17;;;;;;;1.05;0.55;;;;;;;18.92;49.81;100218.72;5041247;27;100877;-77
2023/12/22 04:27:44;;;;;;;1.88;0.40;;;;;;;18.91;50.00;100234.19;5043759;27;97871;-77
2023/12/22 04:30:12;;;;;;;1.35;0.50;;;;;;;18.91;49.91;100234.19;5047171;27;96742;-77
2023/12/22 04:32:38;;;;;;;1.02;0.50;;;;;;;18.92;50.05;100226.88;5040395;27;97011;-77
2023/12/22 04:35:05;;;;;;;1.90;0.70;;;;;;;18.91;49.79;100239.66;5067116;27;96977;-78
2023/12/22 04:37:32;;;;;;;1.13;0.40;;;;;;;18.92;50.00;100218.72;5068895;27;96714;-77
2023/12/22 04:39:59;;;;;;;1.67;0.80;;;;;;;18.92;49.85;100238.63;5041181;27;96760;-77
2023/12/22 04:42:27;;;;;;;1.00;0.50;;;;;;;18.93;49.60;100239.47;5067060;27;96862;-78
2023/12/22 04:44:53;;;;;;;1.42;0.57;;;;;;;18.93;49.69;100234.88;5042705;27;97522;-78
2023/12/22 04:47:20;;;;;;;0.90;0.50;;;;;;;18.94;49.92;100230.28;5053949;27;98863;-77
2023/12/22 04:49:47;;;;;;;1.55;0.70;;;;;;;18.95;49.58;100251.03;5054433;27;96658;-78
2023/12/22 04:52:13;;;;;;;1.67;0.50;;;;;;;18.94;49.46;100244.72;5054321;27;96991;-77
2023/12/22 04:54:40;;;;;;;1.25;0.50;;;;;;;18.93;49.75;100253.91;5037005;27;97131;-77
2023/12/22 04:57:07;;;;;;;1.55;0.60;;;;;;;18.94;49.36;100271.09;5053020;27;100584;-77
2023/12/22 04:59:33;;;;;;;1.13;0.40;;;;;;;18.93;49.71;100262.09;5072828;27;96710;-77
2023/12/22 05:02:00;;;;;;;1.08;0.40;;;;;;;18.95;49.57;100275.50;5072692;27;97096;-77
2023/12/22 05:04:27;;;;;;;1.45;0.50;;;;;;;18.94;49.40;100285.56;5044213;27;97749;-77
2023/12/22 05:06:54;;;;;;;1.00;0.50;;;;;;;18.95;49.48;100280.97;5047251;27;97221;-77
2023/12/22 05:09:20;;;;;;;1.55;0.80;;;;;;;18.94;49.42;100277.38;5063415;27;96880;-78
2023/12/22 05:11:47;;;;;;;1.35;0.60;;;;;;;18.94;49.54;100266.50;5049923;27;97150;-78
2023/12/22 05:14:14;;;;;;;1.92;0.70;;;;;;;18.95;49.64;100273.63;5052497;27;100454;-77
2023/12/22 05:16:40;;;;;;;0.90;0.40;;;;;;;18.94;49.54;100269.22;5061527;27;97194;-77
2023/12/22 05:19:07;;;;;;;1.48;0.60;;;;;;;18.94;49.24;100274.66;5046655;27;96762;-78
2023/12/22 05:21:34;;;;;;;1.60;0.60;;;;;;;18.95;49.48;100268.19;5060773;27;99313;-78
2023/12/22 05:24:00;;;;;;;1.08;0.60;;;;;;;18.94;49.76;100269.22;5043924;27;97136;-78
2023/12/22 05:26:30;;;;;;;1.35;0.50;;;;;;;18.94;49.36;100277.38;5058979;27;96839;-77
2023/12/22 05:28:57;;;;;;;1.80;0.52;;;;;;;18.94;49.38;100269.22;5042301;27;96784;-78
2023/12/22 05:31:24;;;;;;;2.00;0.60;;;;;;;18.95;49.63;100270.06;5054610;27;96704;-77
2023/12/22 05:33:50;;;;;;;1.90;0.60;;;;;;;18.94;49.51;100268.38;5066876;27;96841;-78
2023/12/22 05:36:17;;;;;;;0.90;0.40;;;;;;;18.94;49.51;100276.53;5060345;27;97491;-78
2023/12/22 05:38:44;;;;;;;1.27;0.60;;;;;;;18.93;49.23;100259.38;5046180;27;96960;-77
2023/12/22 05:41:10;;;;;;;1.00;0.60;;;;;;;18.93;49.45;100259.38;5051349;27;96967;-78
2023/12/22 05:43:37;;;;;;;1.60;0.50;;;;;;;18.94;49.54;100261.06;5056986;27;97014;-78
2023/12/22 05:46:03;;;;;;;1.33;0.55;;;;;;;18.95;49.30;100273.63;5051149;27;96784;-78
2023/12/22 05:48:30;;;;;;;1.33;0.60;;;;;;;18.93;49.60;100270.25;5055294;27;97268;-78
2023/12/22 05:50:57;;;;;;;2.20;0.80;;;;;;;18.93;49.64;100261.25;5049121;27;97073;-78
2023/12/22 05:53:24;;;;;;;0.82;0.40;;;;;;;18.94;49.23;100252.91;5052653;27;96880;-77
2023/12/22 05:55:51;;;;;;;2.00;0.57;;;;;;;18.94;49.64;100258.34;5048294;27;97430;-77
2023/12/22 05:58:17;;;;;;;2.65;0.63;;;;;;;18.95;49.52;100251.88;5059129;27;97350;-78
2023/12/22 06:00:44;;;;;;;1.75;0.70;;;;;;;18.96;49.15;100258.16;5038064;27;96923;-78
2023/12/22 06:03:11;;;;;;;1.20;0.45;;;;;;;18.96;49.52;100250.84;5052250;27;100231;-77
2023/12/22 06:05:38;;;;;;;1.92;0.60;;;;;;;18.96;49.46;100259.00;5070421;27;97257;-78
2023/12/22 06:08:05;;;;;;;2.72;0.63;;;;;;;18.94;49.32;100250.19;5061484;27;96837;-78
2023/12/22 06:10:32;;;;;;;1.05;0.50;;;;;;;18.95;49.36;100245.59;5055878;27;97261;-78
2023/12/22 06:13:03;;;;;;;1.10;0.50;;;;;;;18.95;49.27;100259.19;5050714;27;97444;-77
2023/12/22 06:15:30;;;;;;;2.35;0.60;;;;;;;18.94;49.54;100260.22;5034507;27;96818;-77
2023/12/22 06:17:56;;;;;;;1.40;0.70;;;;;;;18.95;49.57;100262.75;5050861;27;96854;-77
2023/12/22 06:20:26;;;;;;;0.68;0.43;;;;;;;18.95;49.33;100259.19;5042094;27;97193;-78
2023/12/22 06:22:52;;;;;;;1.85;0.55;;;;;;;18.95;49.37;100254.59;5049459;27;99638;-77
2023/12/22 06:25:19;;;;;;;1.40;0.50;;;;;;;18.95;49.00;100248.31;5064430;27;97469;-77
2023/12/22 06:27:46;;;;;;;1.52;0.60;;;;;;;18.95;49.37;100242.84;5050018;27;96787;-77
2023/12/22 06:30:13;;;;;;;1.10;0.45;;;;;;;18.95;49.13;100253.75;5048529;27;96930;-77
2023/12/22 06:32:41;;;;;;;1.90;0.60;;;;;;;18.95;49.32;100270.91;5058333;27;97504;-77
2023/12/22 06:35:09;;;;;;;0.88;0.55;;;;;;;18.95;49.10;100262.75;5044819;27;100355;-78
2023/12/22 06:37:39;;;;;;;1.73;0.65;;;;;;;18.94;49.20;100276.53;5058314;27;96807;-78
2023/12/22 06:40:06;;;;;;;1.70;0.60;;;;;;;18.95;49.14;100289.97;5035873;27;97233;-78
2023/12/22 06:42:33;;;;;;;1.55;0.60;;;;;;;18.95;49.11;100289.13;5034583;27;97933;-78
2023/12/22 06:45:00;;;;;;;0.93;0.60;;;;;;;18.95;49.48;100281.81;5035082;27;96877;-78
2023/12/22 06:47:26;;;;;;;1.33;0.50;;;;;;;18.95;49.30;100289.97;5057773;27;96849;-78
2023/12/22 06:49:54;;;;;;;0.95;0.50;;;;;;;18.97;49.50;100290.63;5032668;27;96912;-77
2023/12/22 06:52:20;;;;;;;1.73;0.68;;;;;;;18.96;49.48;100279.94;5063768;27;97675;-77
2023/12/22 06:54:47;;;;;;;1.20;0.60;;;;;;;18.95;49.18;100275.50;5035320;27;99917;-78
2023/12/22 06:57:14;;;;;;;1.95;0.63;;;;;;;18.95;49.22;100260.03;5035750;27;97125;-78
2023/12/22 06:59:43;;;;;;;1.33;0.50;;;;;;;18.95;49.33;100275.50;5052210;27;97082;-78
2023/12/22 07:02:11;;;;;;;0.93;0.40;;;;;;;18.95;49.31;100262.75;5068183;27;97531;-77
2023/12/22 07:05:09;;;;;;;1.38;0.60;;;;;;;18.94;49.36;100261.06;5065286;27;97338;-78
2023/12/22 07:07:36;;;;;;;1.45;0.60;;;;;;;18.94;49.38;100263.78;5041065;27;97342;-77
2023/12/22 07:10:03;;;;;;;1.13;0.60;;;;;;;18.93;49.25;100253.06;5054455;27;96911;-77
2023/12/22 07:12:30;;;;;;;2.22;0.70;;;;;;;18.93;49.38;100242.19;5053221;27;98461;-78
2023/12/22 07:14:58;;;;;;;2.28;0.65;;;;;;;18.93;49.26;100250.34;5025106;27;96959;-78
2023/12/22 07:17:26;;;;;;;1.13;0.47;;;;;;;18.92;49.43;100244.06;5027095;27;96961;-78
2023/12/22 07:19:52;;;;;;;1.02;0.50;;;;;;;18.93;49.30;100234.88;5042327;27;97033;-77
2023/12/22 07:22:29;;;;;;;1.27;0.75;;;;;;;18.93;49.21;100251.19;5056381;27;97546;-77
2023/12/22 07:24:56;;;;;;;1.48;0.63;;;;;;;18.92;49.09;100254.94;5066817;27;97652;-78
2023/12/22 07:27:25;;;;;;;0.93;0.50;;;;;;;18.92;48.94;100248.66;5047382;27;97210;-78
2023/12/22 07:29:54;;;;;;;2.30;0.70;;;;;;;18.93;49.12;100255.78;5049717;27;96837;-78
2023/12/22 07:32:20;;;;;;;0.98;0.50;;;;;;;18.93;49.04;100251.19;5034274;27;97763;-78
2023/12/22 07:34:47;;;;;;;1.42;0.60;;;;;;;18.93;49.15;100256.66;5047698;27;96716;-78
2023/12/22 07:37:14;;;;;;;1.55;0.70;;;;;;;18.93;49.12;100258.50;5057431;27;97731;-78
2023/12/22 07:39:41;;;;;;;1.25;0.63;;;;;;;18.93;49.10;100266.69;5044033;27;97081;-78
2023/12/22 07:42:08;;;;;;;1.42;0.68;;;;;;;18.93;49.32;100264.81;5046006;27;98817;-77
2023/12/22 07:44:35;;;;;;;1.48;0.80;;;;;;;18.93;49.07;100267.53;5056180;27;97355;-78
2023/12/22 07:47:02;;;;;;;1.33;0.52;;;;;;;18.94;49.14;100252.03;5026214;27;96962;-78
2023/12/22 07:49:29;;;;;;;1.40;0.60;;;;;;;18.92;49.12;100249.50;5026895;27;97533;-78
2023/12/22 07:51:57;;;;;;;2.15;0.90;;;;;;;18.93;48.93;100261.25;5038353;27;98586;-78
2023/12/22 07:54:25;;;;;;;1.00;0.63;;;;;;;18.94;48.99;100243.88;5043062;27;96988;-77
2023/12/22 07:56:52;;;;;;;1.63;0.70;;;;;;;18.94;49.21;100249.31;5039159;27;96696;-78
2023/12/22 07:59:19;;;;;;;1.42;0.70;;;;;;;18.95;49.23;100253.75;5033279;27;97225;-78
2023/12/22 08:01:56;;;;;;;3.50;0.93;;;;;;;18.93;49.19;100259.38;5038698;27;97236;-78
2023/12/22 08:04:23;;;;;;;1.42;0.50;;;;;;;18.94;49.08;100242.00;5045757;27;96687;-78
2023/12/22 08:06:50;;;;;;;3.08;0.82;;;;;;;18.94;49.14;100255.63;5040860;27;97023;-75
2023/12/22 08:09:17;;;;;;;1.48;0.60;;;;;;;18.94;49.13;100263.78;5052586;27;99270;-76
2023/12/22 08:11:46;;;;;;;2.25;0.80;;;;;;;18.95;49.31;100253.75;5040597;27;96746;-77
2023/12/22 08:14:13;;;;;;;1.52;0.70;;;;;;;18.95;49.37;100260.03;5025503;27;98653;-76
2023/12/22 08:16:40;;;;;;;1.88;0.80;;;;;;;18.95;49.20;100251.88;5042388;27;97835;-76
2023/12/22 08:19:07;;;;;;;2.58;0.90;;;;;;;18.96;49.23;100258.16;5054111;27;97199;-76
2023/12/22 08:21:34;;;;;;;1.85;0.70;;;;;;;18.95;49.19;100246.44;5039833;27;97371;-77
2023/12/22 08:24:11;;;;;;;2.22;1.05;;;;;;;18.95;49.37;100245.59;5056165;27;96869;-77
2023/12/22 08:26:51;;;;;;;4.85;1.15;;;;;;;18.95;48.87;100238.25;5041213;27;96923;-77
2023/12/22 08:29:20;;;;;;;4.25;0.93;;;;;;;18.97;48.93;100238.09;5055627;27;96732;-76
2023/12/22 08:31:47;;;;;;;2.08;0.70;;;;;;;18.97;49.08;100248.97;5040758;27;98741;-77
2023/12/22 08:34:14;;;;;;;2.00;0.85;;;;;;;18.95;49.36;100246.44;5051166;27;96899;-77
2023/12/22 08:36:41;;;;;;;1.42;0.60;;;;;;;18.96;49.08;100234.53;5047808;27;96854;-77
2023/12/22 08:39:08;;;;;;;1.98;0.60;;;;;;;18.96;48.99;100244.56;5050597;27;96887;-77
2023/12/22 08:41:37;;;;;;;2.67;0.85;;;;;;;18.96;48.97;100242.69;5056115;27;97920;-77
2023/12/22 08:44:05;;;;;;;1.27;0.77;;;;;;;18.96;48.97;100222.78;5037790;27;97009;-77
2023/12/22 08:46:32;;;;;;;2.72;1.10;;;;;;;18.96;49.08;100223.63;5044981;27;96955;-77
2023/12/22 08:48:59;;;;;;;2.35;0.90;;;;;;;18.95;48.98;100215.66;5060422;27;96809;-77
2023/12/22 08:51:26;;;;;;;3.63;1.20;;;;;;;18.95;48.87;100205.63;5048356;27;96827;-76
2023/12/22 08:53:57;;;;;;;1.77;0.75;;;;;;;18.97;49.13;100216.31;5047144;27;96820;-76
2023/12/22 08:56:24;;;;;;;3.15;1.05;;;;;;;18.95;49.36;100213.78;5050317;27;97846;-76
2023/12/22 08:58:54;;;;;;;2.42;0.88;;;;;;;18.96;49.08;100210.03;5046061;27;96917;-76
2023/12/22 09:01:22;;;;;;;1.45;0.70;;;;;;;18.95;49.14;100199.31;5037012;27;98219;-76
2023/12/22 09:03:48;;;;;;;2.25;1.10;;;;;;;18.94;48.98;100206.63;5038052;27;99968;-76
2023/12/22 09:06:20;;;;;;;3.25;1.00;;;;;;;18.97;49.27;100211.72;5039081;27;96668;-76
2023/12/22 09:08:46;;;;;;;3.25;1.10;;;;;;;18.97;48.90;100203.56;5035508;27;96720;-76
2023/12/22 09:11:17;;;;;;;2.20;0.80;;;;;;;18.97;48.92;100219.88;5031066;27;96708;-76
2023/12/22 09:13:44;;;;;;;1.60;0.73;;;;;;;18.98;49.18;100212.56;5050338;27;98375;-76
2023/12/22 09:16:11;;;;;;;1.95;0.95;;;;;;;18.97;48.94;100214.44;5032195;27;97448;-76
2023/12/22 09:18:38;;;;;;;2.30;0.70;;;;;;;18.99;49.14;100219.72;5050976;27;97239;-77
2023/12/22 09:21:04;;;;;;;2.65;1.17;;;;;;;18.98;49.07;100224.31;5049019;27;96622;-76
2023/12/22 09:23:31;;;;;;;2.30;0.73;;;;;;;18.98;49.02;100224.31;5051594;27;96848;-76
2023/12/22 09:25:58;;;;;;;2.45;1.00;;;;;;;18.98;49.16;100226.19;5053461;27;97236;-76
2023/12/22 09:28:25;;;;;;;2.47;1.23;;;;;;;18.98;48.87;100216.13;5056628;27;97214;-77
2023/12/22 09:30:52;;;;;;;2.08;0.90;;;;;;;18.99;48.95;100209.66;5049661;27;99286;-77
2023/12/22 09:33:19;;;;;;;3.13;1.23;;;;;;;18.99;49.01;100203.38;5048727;27;100203;-76
2023/12/22 09:35:45;;;;;;;1.65;0.80;;;;;;;18.98;49.10;100212.56;5048438;27;97863;-76
2023/12/22 09:38:12;;;;;;;3.13;1.00;;;;;;;18.99;49.02;100211.53;5037990;27;96812;-76
2023/12/22 09:40:39;;;;;;;1.30;0.60;;;;;;;18.98;49.18;100215.28;5061814;27;97769;-76
2023/12/22 09:43:08;;;;;;;1.90;0.80;;;;;;;18.98;48.88;100202.53;5051456;27;97451;-76
2023/12/22 09:45:35;;;;;;;2.28;1.00;;;;;;;18.97;48.97;100203.56;5048689;27;96694;-76
2023/12/22 09:48:03;;;;;;;2.10;0.90;;;;;;;18.99;48.81;100238.75;5036626;27;96883;-77
2023/12/22 09:50:30;;;;;;;2.78;1.10;;;;;;;18.98;48.88;100210.69;5041738;27;98618;-77
2023/12/22 09:52:57;;;;;;;2.35;1.00;;;;;;;18.98;48.87;100207.97;5054130;27;97408;-77
2023/12/22 09:55:25;;;;;;;1.60;0.80;;;;;;;18.98;48.85;100202.53;5052750;27;97068;-77
2023/12/22 09:57:52;;;;;;;3.70;1.02;;;;;;;19.00;48.96;100205.06;5040090;27;97250;-77
2023/12/22 10:00:21;;;;;;;2.65;1.10;;;;;;;18.99;49.15;100204.22;5029779;27;97587;-76
2023/12/22 10:02:48;;;;;;;3.00;1.17;;;;;;;18.99;49.15;100206.94;5050694;27;97702;-77
2023/12/22 10:05:14;;;;;;;2.63;0.70;;;;;;;19.00;49.10;100196.91;5052570;27;96662;-76
2023/12/22 10:07:44;;;;;;;1.40;0.60;;;;;;;19.00;48.78;100214.09;5034244;27;96788;-77
2023/12/22 10:10:12;;;;;;;3.88;1.10;;;;;;;19.02;48.74;100211.19;5053490;27;97520;-77
2023/12/22 10:12:40;;;;;;;2.33;0.90;;;;;;;19.02;48.73;100200.31;5034356;27;96907;-77
2023/12/22 10:15:08;;;;;;;1.50;0.70;;;;;;;19.01;48.79;100202.16;5051375;27;96739;-77
2023/12/22 10:17:36;;;;;;;1.80;0.85;;;;;;;19.01;48.66;100207.63;5032931;27;96944;-76
2023/12/22 10:20:03;;;;;;;2.00;0.75;;;;;;;19.00;48.81;100197.75;5045351;27;97241;-76
2023/12/22 10:22:30;;;;;;;2.72;0.73;;;;;;;19.01;48.76;100206.78;5033775;27;97317;-77
2023/12/22 10:24:57;;;;;;;2.25;0.93;;;;;;;19.01;48.84;100198.59;5039010;27;97420;-77
2023/12/22 10:27:23;;;;;;;2.53;0.80;;;;;;;19.02;48.90;100186.69;5042050;27;96901;-77
2023/12/22 10:29:55;;;;;;;3.65;0.90;;;;;;;19.00;48.68;100181.44;5049057;27;99252;-77
2023/12/22 10:32:22;;;;;;;2.25;1.00;;;;;;;19.01;48.82;100193.16;5055635;27;97688;-76
2023/12/22 10:34:51;;;;;;;2.17;0.90;;;;;;;19.02;48.69;100179.38;5050841;27;96744;-77
2023/12/22 10:37:18;;;;;;;2.22;1.20;;;;;;;19.03;48.65;100170.19;5065811;27;96762;-77
2023/12/22 10:39:48;;;;;;;1.83;0.80;;;;;;;19.03;48.46;100183.78;5044282;27;98087;-77
2023/12/22 10:42:15;;;;;;;1.67;0.93;;;;;;;19.04;48.95;100174.59;5036634;27;98811;-76
2023/12/22 10:44:42;;;;;;;1.95;0.77;;;;;;;19.04;48.86;100187.38;5057505;27;98893;-76
2023/12/22 10:47:09;;;;;;;1.90;0.88;;;;;;;19.04;48.75;100181.91;5049614;27;97380;-77
2023/12/22 10:49:36;;;;;;;1.60;0.90;;;;;;;19.04;48.79;100173.75;5045081;27;97143;-76
2023/12/22 10:55:21;;;;;;;2.33;0.88;;;;;;;19.81;47.69;100230.94;5050819;22;96740;-72
2023/12/22 10:57:48;;;;;;;3.85;1.45;;;;;;;20.30;46.98;100231.31;5032904;27;97060;-73
2023/12/22 13:37:33;;;;;;;4.15;1.45;;;;;;;21.56;46.11;100166.38;5009982;28;97156;-53
2023/12/22 13:40:00;;;;;;;5.78;1.42;;;;;;;22.03;45.24;100151.22;4995724;28;96842;-55
2023/12/22 13:42:27;;;;;;;3.47;1.10;;;;;;;22.53;45.15;100160.16;4994079;28;98551;-55
2023/12/22 13:44:54;;;;;;;2.70;1.02;;;;;;;23.32;44.70;100173.31;4994178;28;97534;-50
